Time;durP1;ratioP1;P1;durP2;ratioP2;P2;SDS_P1;SDS_P2;PMS_P1;PMS_P2;Temp;Humidity;BMP_temperature;BMP_pressure;BME280_temperature;BME280_humidity;BME280_pressure;Samples;Min_cycle;Max_cycle;Signal;HPM_P1;HPM_P2
2022/11/04 00:00:33;;;;;;;2.12;2.03;;;;;;;13.33;67.58;99716.53;4343820;32;31755;-90
2022/11/04 00:03:02;;;;;;;1.87;1.77;;;;;;;13.26;68.08;99711.69;4358781;32;33779;-87
2022/11/04 00:05:31;;;;;;;2.42;2.15;;;;;;;13.30;67.97;99700.81;4353329;32;34060;-87
2022/11/04 00:13:43;;;;;;;2.90;2.62;;;;;;;12.89;69.21;99679.22;4352898;32;33380;-84
2022/11/04 00:18:59;;;;;;;2.40;2.22;;;;;;;13.18;68.34;99690.00;4361337;32;34289;-84
2022/11/04 00:29:51;;;;;;;3.00;2.12;;;;;;;12.51;70.60;99658.34;4363319;32;32959;-84
2022/11/04 00:35:07;;;;;;;0.95;0.95;;;;;;;12.68;70.54;99657.44;4365897;32;33782;-84
2022/11/04 00:37:39;;;;;;;1.37;1.27;;;;;;;12.97;69.56;99661.12;4367524;32;34562;-84
2022/11/04 00:40:08;;;;;;;2.42;2.20;;;;;;;12.91;69.64;99656.13;4369548;32;32912;-85
2022/11/04 00:42:36;;;;;;;3.00;2.80;;;;;;;12.91;69.67;99647.34;4348937;32;33424;-84
2022/11/04 00:45:04;;;;;;;1.75;1.52;;;;;;;12.75;70.38;99650.00;4372506;32;32500;-84
2022/11/04 00:47:32;;;;;;;2.58;2.40;;;;;;;12.65;70.84;99632.91;4347800;32;34559;-84
2022/11/04 00:50:00;;;;;;;1.30;1.25;;;;;;;12.64;71.15;99625.91;4372842;32;32993;-84
2022/11/04 00:52:27;;;;;;;3.58;3.00;;;;;;;12.77;70.48;99621.59;4348164;32;33296;-85
2022/11/04 00:54:55;;;;;;;2.72;2.53;;;;;;;12.49;71.82;99623.16;4373061;32;33331;-84
2022/11/04 00:57:23;;;;;;;2.28;2.17;;;;;;;13.15;69.34;99637.16;4367064;32;35318;-84
2022/11/04 00:59:51;;;;;;;2.12;2.03;;;;;;;12.96;69.70;99632.91;4348434;32;34044;-84
2022/11/04 01:02:19;;;;;;;3.90;3.40;;;;;;;13.13;69.42;99633.75;4366145;32;33415;-84
2022/11/04 01:04:48;;;;;;;4.03;2.37;;;;;;;13.11;69.27;99639.16;4359208;32;33857;-84
2022/11/04 01:07:15;;;;;;;1.87;1.77;;;;;;;12.64;70.94;99632.03;4365409;32;34681;-84
2022/11/04 01:09:43;;;;;;;2.12;2.00;;;;;;;12.72;71.01;99631.59;4364978;32;33874;-84
2022/11/04 01:12:11;;;;;;;4.53;2.65;;;;;;;12.86;70.67;99620.25;4364873;32;33047;-85
2022/11/04 01:14:39;;;;;;;2.25;2.15;;;;;;;13.17;69.60;99630.84;4362363;32;33744;-84
2022/11/04 01:17:07;;;;;;;2.83;1.58;;;;;;;13.31;68.84;99628.28;4360561;32;33190;-84
2022/11/04 01:19:35;;;;;;;2.95;2.65;;;;;;;13.38;68.73;99625.25;4361109;32;32746;-84
2022/11/04 01:22:03;;;;;;;3.22;2.95;;;;;;;13.31;68.60;99622.13;4336186;32;32262;-84
2022/11/04 01:24:31;;;;;;;1.48;1.40;;;;;;;13.56;68.03;99622.38;4347734;32;33835;-84
2022/11/04 01:27:01;;;;;;;1.12;1.12;;;;;;;13.43;68.30;99610.78;4355824;32;34700;-84
2022/11/04 01:29:28;;;;;;;2.30;2.15;;;;;;;13.15;69.25;99608.00;4354503;32;33571;-84
2022/11/04 01:31:56;;;;;;;2.47;2.25;;;;;;;13.52;68.14;99596.97;4366339;32;32925;-84
2022/11/04 01:34:24;;;;;;;7.18;4.50;;;;;;;13.32;68.69;99602.59;4362256;32;33509;-84
2022/11/04 01:36:52;;;;;;;2.03;1.92;;;;;;;13.09;69.50;99609.19;4360872;32;34429;-83
2022/11/04 01:39:20;;;;;;;4.60;1.62;;;;;;;13.38;68.69;99606.69;4346404;32;34138;-84
2022/11/04 01:41:47;;;;;;;2.40;2.25;;;;;;;13.33;68.64;99593.69;4363302;32;35229;-84
2022/11/04 01:44:44;;;;;;;5.72;1.90;;;;;;;13.32;69.00;99592.84;4340625;32;34571;-84
2022/11/04 01:47:20;;;;;;;0.80;0.80;;;;;;;13.39;68.62;99572.16;4359864;32;33990;-84
2022/11/04 01:50:12;;;;;;;2.33;2.15;;;;;;;13.36;68.90;99561.72;4348253;32;32828;-85
2022/11/04 01:52:50;;;;;;;4.18;3.70;;;;;;;13.14;69.94;99566.53;4348222;32;33509;-84
2022/11/04 01:55:33;;;;;;;1.65;1.60;;;;;;;13.68;67.93;99567.75;4360055;32;33036;-84
2022/11/04 01:58:08;;;;;;;5.80;4.37;;;;;;;13.19;69.66;99559.16;4360178;32;34509;-84
2022/11/04 02:00:39;;;;;;;2.37;2.17;;;;;;;12.92;70.74;99562.47;4359641;32;34435;-83
2022/11/04 02:03:11;;;;;;;5.03;2.60;;;;;;;13.27;69.70;99546.34;4364070;32;32748;-84
2022/11/04 02:05:41;;;;;;;1.80;1.65;;;;;;;13.28;69.59;99546.25;4357024;32;32527;-84
2022/11/04 02:08:10;;;;;;;5.45;4.62;;;;;;;13.29;69.75;99545.31;4355886;32;33545;-84
2022/11/04 02:10:40;;;;;;;2.15;2.00;;;;;;;13.66;68.28;99536.94;4359877;32;33508;-84
2022/11/04 02:13:08;;;;;;;2.25;2.05;;;;;;;13.43;69.35;99541.81;4359470;32;33334;-84
2022/11/04 02:15:55;;;;;;;5.87;3.12;;;;;;;13.83;67.87;99529.69;4353485;32;33803;-84
2022/11/04 02:18:45;;;;;;;6.53;2.70;;;;;;;13.69;68.32;99526.16;4358121;32;32980;-84
2022/11/04 02:21:44;;;;;;;5.95;4.07;;;;;;;13.92;67.14;99522.09;4361576;32;34183;-85
2022/11/04 02:24:43;;;;;;;1.92;1.83;;;;;;;13.56;68.74;99524.25;4361605;32;32264;-84
2022/11/04 02:27:34;;;;;;;2.92;2.65;;;;;;;13.63;68.39;99515.94;4361433;32;33520;-84
2022/11/04 02:30:08;;;;;;;4.70;3.22;;;;;;;13.67;68.34;99501.50;4360203;32;32861;-84
2022/11/04 02:32:51;;;;;;;3.90;3.58;;;;;;;14.04;67.15;99495.63;4359284;32;34948;-84
2022/11/04 02:35:38;;;;;;;4.30;2.15;;;;;;;13.65;68.47;99509.56;4353878;32;33538;-84
2022/11/04 02:38:30;;;;;;;1.83;1.73;;;;;;;13.16;70.50;99503.69;4354756;32;33589;-83
2022/11/04 02:41:08;;;;;;;3.15;2.92;;;;;;;13.26;69.98;99491.63;4347773;32;34733;-83
2022/11/04 02:43:44;;;;;;;2.55;2.17;;;;;;;12.66;72.28;99492.41;4359400;32;35715;-83
2022/11/04 02:46:31;;;;;;;2.28;1.80;;;;;;;12.53;72.96;99492.28;4361866;32;31837;-84
2022/11/04 02:49:05;;;;;;;6.82;3.10;;;;;;;12.89;71.85;99483.13;4358343;32;33915;-84
2022/11/04 02:52:00;;;;;;;1.83;1.73;;;;;;;12.89;71.78;99487.59;4356598;32;34026;-84
2022/11/04 02:54:47;;;;;;;1.80;1.70;;;;;;;13.15;70.86;99488.69;4365774;32;34595;-84
2022/11/04 02:57:28;;;;;;;3.55;2.95;;;;;;;13.11;70.95;99490.69;4352525;32;33382;-84
2022/11/04 02:59:56;;;;;;;4.55;4.15;;;;;;;12.88;71.68;99497.34;4347648;32;32365;-84
2022/11/04 03:02:29;;;;;;;2.70;2.50;;;;;;;12.61;72.77;99501.56;4355437;32;33979;-85
2022/11/04 03:04:57;;;;;;;3.45;3.15;;;;;;;12.92;71.79;99501.53;4358737;32;34569;-85
2022/11/04 03:07:29;;;;;;;1.65;1.55;;;;;;;12.85;71.82;99492.19;4367773;32;33070;-84
2022/11/04 03:10:06;;;;;;;2.53;2.33;;;;;;;13.03;71.64;99485.84;4353365;32;33592;-85
2022/11/04 03:12:39;;;;;;;4.28;2.85;;;;;;;12.72;72.34;99477.94;4353860;32;33088;-89
2022/11/04 03:15:17;;;;;;;2.83;2.62;;;;;;;13.00;71.57;99454.19;4341652;32;33314;-89
2022/11/04 03:17:52;;;;;;;6.85;3.85;;;;;;;12.72;72.38;99462.06;4365001;32;32598;-89
2022/11/04 03:20:55;;;;;;;5.55;3.08;;;;;;;13.20;70.59;99446.88;4349316;32;32986;-89
2022/11/04 03:23:23;;;;;;;8.00;4.95;;;;;;;12.46;73.13;99448.53;4337335;32;33851;-89
2022/11/04 03:25:57;;;;;;;2.12;2.03;;;;;;;12.65;72.67;99431.59;4342141;32;33724;-86
2022/11/04 03:28:52;;;;;;;8.27;4.50;;;;;;;12.61;72.49;99430.06;4352035;32;33219;-87
2022/11/04 03:31:30;;;;;;;15.20;4.82;;;;;;;12.64;72.78;99435.19;4357654;32;33384;-89
2022/11/04 03:33:59;;;;;;;3.70;3.37;;;;;;;12.77;72.10;99436.16;4367231;32;33225;-81
2022/11/04 03:36:31;;;;;;;2.78;2.58;;;;;;;12.51;73.26;99432.38;4345524;32;34540;-81
2022/11/04 03:38:59;;;;;;;3.80;3.50;;;;;;;12.69;72.58;99427.81;4364288;32;33396;-81
2022/11/04 03:41:48;;;;;;;4.70;2.47;;;;;;;12.77;72.40;99425.56;4348007;32;33791;-83
2022/11/04 03:44:16;;;;;;;2.08;1.98;;;;;;;12.99;71.12;99433.94;4360123;32;33653;-83
2022/11/04 03:46:44;;;;;;;3.20;2.80;;;;;;;12.65;72.44;99424.47;4343430;32;33245;-83
2022/11/04 03:49:13;;;;;;;3.50;3.00;;;;;;;12.80;71.94;99430.69;4359195;32;34140;-83
2022/11/04 03:51:41;;;;;;;4.43;4.07;;;;;;;12.45;73.42;99438.88;4359845;32;33631;-82
2022/11/04 03:54:08;;;;;;;2.92;2.72;;;;;;;12.42;73.05;99420.50;4335606;32;33774;-83
2022/11/04 03:56:40;;;;;;;16.23;4.03;;;;;;;12.49;73.11;99408.63;4348114;32;33215;-83
2022/11/04 03:59:40;;;;;;;3.62;3.33;;;;;;;12.65;72.82;99405.09;4357602;32;32056;-82
2022/11/04 04:02:32;;;;;;;3.25;3.00;;;;;;;12.92;71.65;99387.56;4359801;32;35077;-83
2022/11/04 04:05:09;;;;;;;2.45;2.25;;;;;;;12.76;72.09;99384.97;4341999;32;34067;-82
2022/11/04 04:07:53;;;;;;;6.35;4.78;;;;;;;12.41;73.48;99372.94;4360662;32;32635;-83
2022/11/04 04:10:38;;;;;;;4.20;2.70;;;;;;;12.61;73.23;99377.06;4360951;32;34619;-83
2022/11/04 04:13:15;;;;;;;2.50;2.35;;;;;;;12.32;74.17;99382.28;4348547;32;33512;-82
2022/11/04 04:15:59;;;;;;;3.45;3.15;;;;;;;12.82;72.34;99367.87;4345544;32;33473;-83
2022/11/04 04:18:54;;;;;;;4.50;3.42;;;;;;;12.99;71.40;99367.69;4354667;32;34347;-83
2022/11/04 04:21:39;;;;;;;3.37;2.85;;;;;;;12.60;73.09;99370.94;4340268;32;33179;-83
2022/11/04 04:29:45;;;;;;;2.55;2.37;;;;;;;12.46;73.11;99366.44;4356811;32;33533;-82
2022/11/04 04:32:13;;;;;;;6.28;5.03;;;;;;;12.60;72.42;99370.06;4361029;32;33089;-82
2022/11/04 04:34:42;;;;;;;10.25;4.37;;;;;;;12.64;72.87;99377.75;4353470;32;34367;-82
2022/11/04 04:37:23;;;;;;;3.67;3.15;;;;;;;12.73;72.56;99377.22;4352782;32;33733;-82
2022/11/04 04:45:37;;;;;;;6.15;4.28;;;;;;;12.55;72.74;99363.25;4344208;32;32800;-81
2022/11/04 04:48:08;;;;;;;5.10;4.43;;;;;;;12.27;73.75;99357.84;4329463;32;32989;-82
2022/11/04 04:50:39;;;;;;;6.70;3.65;;;;;;;12.20;73.61;99353.84;4345367;32;33244;-82
2022/11/04 04:53:08;;;;;;;5.82;4.30;;;;;;;12.25;73.70;99357.97;4351882;32;34904;-82
2022/11/04 04:55:36;;;;;;;3.58;2.15;;;;;;;12.59;72.00;99358.63;4351371;32;33450;-82
2022/11/04 04:58:09;;;;;;;5.72;5.20;;;;;;;12.52;72.00;99366.06;4354198;32;33253;-82
2022/11/04 05:00:39;;;;;;;3.47;3.17;;;;;;;12.42;72.85;99362.25;4346436;33;33483;-82
2022/11/04 05:03:10;;;;;;;4.82;4.45;;;;;;;12.49;72.32;99358.31;4354412;32;33412;-84
2022/11/04 05:05:40;;;;;;;3.42;3.12;;;;;;;12.33;72.78;99357.50;4359924;32;33027;-83
2022/11/04 05:08:08;;;;;;;5.05;4.60;;;;;;;12.24;72.93;99364.16;4346734;32;33165;-84
2022/11/04 05:10:37;;;;;;;4.35;3.72;;;;;;;12.49;72.07;99355.69;4351953;32;33257;-82
2022/11/04 05:15:54;;;;;;;3.92;3.47;;;;;;;12.52;71.82;99358.13;4341084;32;32926;-82
2022/11/04 05:18:22;;;;;;;6.70;5.65;;;;;;;11.95;73.79;99357.88;4347097;32;34277;-82
2022/11/04 05:20:52;;;;;;;5.07;4.57;;;;;;;12.33;72.62;99357.50;4354458;32;34077;-81
2022/11/04 05:23:22;;;;;;;4.82;4.43;;;;;;;11.94;73.47;99364.12;4351840;32;33758;-82
2022/11/04 05:25:57;;;;;;;5.40;4.05;;;;;;;12.52;71.45;99358.13;4353667;32;34272;-82
2022/11/04 05:28:27;;;;;;;1.80;1.73;;;;;;;11.83;73.88;99361.25;4348583;32;35014;-82
2022/11/04 05:30:56;;;;;;;4.50;4.05;;;;;;;11.83;74.24;99366.53;4352364;32;33844;-82
2022/11/04 05:33:35;;;;;;;9.75;5.07;;;;;;;11.59;74.87;99362.56;4350558;32;32240;-81
2022/11/04 05:36:12;;;;;;;7.68;5.62;;;;;;;11.58;74.91;99355.53;4348816;32;33227;-82
2022/11/04 05:38:42;;;;;;;14.20;4.55;;;;;;;12.03;72.95;99355.66;4343234;32;34213;-82
2022/11/04 05:41:11;;;;;;;5.30;4.22;;;;;;;11.94;73.33;99360.63;4354402;32;33908;-82
2022/11/04 05:43:38;;;;;;;3.15;2.92;;;;;;;11.84;73.64;99364.72;4347837;32;33650;-81
2022/11/04 05:46:07;;;;;;;3.45;3.15;;;;;;;11.83;73.77;99376.25;4349188;32;35356;-83
2022/11/04 05:48:36;;;;;;;7.37;6.05;;;;;;;11.83;73.51;99384.19;4341875;32;34675;-83
2022/11/04 05:51:13;;;;;;;7.03;5.40;;;;;;;12.19;72.12;99379.47;4350705;32;33570;-82
2022/11/04 05:53:42;;;;;;;3.42;3.12;;;;;;;12.33;71.62;99370.72;4349651;32;33248;-83
2022/11/04 05:56:12;;;;;;;5.95;3.30;;;;;;;12.50;70.92;99370.63;4347130;32;33403;-83
2022/11/04 05:58:40;;;;;;;4.20;3.87;;;;;;;12.04;72.25;99367.97;4350214;32;34774;-83
2022/11/04 06:01:28;;;;;;;7.68;5.15;;;;;;;12.09;72.37;99366.84;4352873;32;34086;-83
2022/11/04 06:03:58;;;;;;;4.47;4.07;;;;;;;12.42;70.79;99375.50;4324586;32;32862;-83
2022/11/04 06:06:29;;;;;;;9.40;6.07;;;;;;;12.24;72.03;99364.16;4339472;33;34621;-83
2022/11/04 06:08:59;;;;;;;6.60;4.50;;;;;;;12.39;71.44;99365.09;4347762;32;34148;-83
2022/11/04 06:11:30;;;;;;;5.68;4.00;;;;;;;12.05;72.17;99364.38;4352570;32;33428;-83
2022/11/04 06:13:59;;;;;;;3.80;3.50;;;;;;;11.94;72.98;99361.47;4352746;32;31935;-83
2022/11/04 06:16:28;;;;;;;5.20;4.43;;;;;;;11.78;73.47;99361.47;4349286;32;34172;-84
2022/11/04 06:18:57;;;;;;;3.25;3.03;;;;;;;11.90;73.04;99362.59;4326013;33;33488;-83
2022/11/04 06:21:39;;;;;;;12.07;6.90;;;;;;;11.95;72.91;99363.19;4345415;33;33285;-84
2022/11/04 06:24:07;;;;;;;6.12;4.05;;;;;;;12.22;72.15;99354.63;4338746;33;32680;-83
2022/11/04 06:26:35;;;;;;;8.57;3.78;;;;;;;11.77;73.17;99354.47;4365383;32;33723;-84
2022/11/04 06:29:03;;;;;;;3.12;2.90;;;;;;;11.84;73.55;99368.22;4350732;32;33171;-83
2022/11/04 06:31:32;;;;;;;5.28;4.78;;;;;;;11.85;73.36;99364.62;4337244;32;34050;-83
2022/11/04 06:34:00;;;;;;;5.10;4.43;;;;;;;11.72;73.66;99376.81;4322264;32;33610;-84
2022/11/04 06:39:09;;;;;;;7.25;4.90;;;;;;;11.57;74.68;99382.94;4335531;33;34151;-83
2022/11/04 06:41:40;;;;;;;3.28;3.08;;;;;;;11.90;73.45;99383.75;4333989;33;34575;-83
2022/11/04 06:44:48;;;;;;;3.92;3.58;;;;;;;12.28;71.82;99378.09;4346177;33;33040;-83
2022/11/04 06:47:16;;;;;;;3.20;2.97;;;;;;;11.76;73.64;99378.34;4327585;33;33714;-83
2022/11/04 06:49:53;;;;;;;11.30;6.53;;;;;;;11.63;74.43;99372.00;4332346;33;33328;-84
2022/11/04 06:52:21;;;;;;;5.93;2.90;;;;;;;11.55;74.73;99375.09;4344660;32;33914;-83
2022/11/04 06:54:52;;;;;;;3.50;3.30;;;;;;;11.89;73.76;99382.06;4337142;33;32669;-83
2022/11/04 06:57:24;;;;;;;6.43;4.72;;;;;;;11.51;74.96;99378.84;4321076;32;33445;-83
2022/11/04 06:59:53;;;;;;;3.95;3.22;;;;;;;11.84;73.71;99376.16;4346052;33;34345;-83
2022/11/04 07:02:22;;;;;;;6.95;4.22;;;;;;;11.66;73.92;99379.78;4349956;32;33436;-83
2022/11/04 07:04:51;;;;;;;4.72;3.47;;;;;;;11.64;74.28;99376.37;4328640;33;32901;-83
2022/11/04 07:10:19;;;;;;;4.25;3.92;;;;;;;11.56;74.35;99376.78;4353635;32;33591;-83
2022/11/04 07:12:49;;;;;;;5.82;3.75;;;;;;;11.29;75.60;99384.41;4347310;32;33479;-83
2022/11/04 07:15:17;;;;;;;7.60;3.03;;;;;;;11.36;75.43;99371.75;4362196;32;33419;-84
2022/11/04 07:17:52;;;;;;;10.05;2.70;;;;;;;11.50;74.71;99377.13;4360946;32;33532;-84
2022/11/04 07:20:23;;;;;;;6.03;3.75;;;;;;;11.75;73.91;99387.22;4352610;32;32518;-83
2022/11/04 07:22:54;;;;;;;;;;;;;;;11.54;74.28;99376.87;4360741;32;33336;-83
2022/11/04 07:25:23;;;;;;;11.05;2.22;;;;;;;11.74;73.76;99374.94;4354308;32;32928;-83
2022/11/04 07:27:51;;;;;;;3.75;3.45;;;;;;;11.31;75.15;99379.91;4363192;32;33852;-84
2022/11/04 07:30:27;;;;;;;11.10;7.40;;;;;;;11.41;74.55;99380.28;4359879;32;33938;-83
2022/11/04 07:32:55;;;;;;;2.47;2.33;;;;;;;11.69;73.72;99382.28;4368903;32;33957;-84
2022/11/04 07:35:23;;;;;;;4.82;4.35;;;;;;;11.48;73.74;99374.56;4351976;32;34710;-83
2022/11/04 07:37:54;;;;;;;3.20;2.72;;;;;;;11.14;75.33;99388.72;4366187;32;32595;-84
2022/11/04 07:40:22;;;;;;;4.55;4.20;;;;;;;11.03;75.88;99384.00;4367811;32;34185;-84
2022/11/04 07:42:50;;;;;;;3.87;3.58;;;;;;;11.09;76.04;99372.25;4366546;32;34137;-83
2022/11/04 07:45:34;;;;;;;3.40;3.12;;;;;;;11.54;73.55;99363.66;4349774;32;32279;-83
2022/11/04 07:48:02;;;;;;;3.53;2.83;;;;;;;11.56;73.60;99370.66;4362074;32;34579;-83
2022/11/04 07:50:30;;;;;;;4.05;3.75;;;;;;;11.41;73.87;99373.19;4347368;32;33493;-83
2022/11/04 07:53:07;;;;;;;3.90;3.60;;;;;;;11.60;73.30;99365.12;4360908;32;32911;-83
2022/11/04 07:55:38;;;;;;;3.37;3.08;;;;;;;11.59;73.58;99362.56;4367288;32;33531;-84
2022/11/04 07:58:13;;;;;;;3.42;3.15;;;;;;;11.34;74.35;99355.94;4363660;32;33923;-84
2022/11/04 08:00:41;;;;;;;6.53;5.90;;;;;;;11.39;74.37;99364.47;4353050;32;33889;-84
2022/11/04 08:03:09;;;;;;;4.65;4.25;;;;;;;12.05;71.56;99353.78;4360976;32;32920;-84
2022/11/04 08:05:38;;;;;;;6.37;4.60;;;;;;;12.05;70.93;99352.94;4355496;32;33433;-84
2022/11/04 08:08:06;;;;;;;5.05;4.65;;;;;;;12.10;70.61;99344.72;4337350;32;33721;-84
2022/11/04 08:10:34;;;;;;;10.63;2.67;;;;;;;11.62;72.74;99354.44;4351264;32;33756;-84
2022/11/04 08:13:30;;;;;;;6.35;5.50;;;;;;;11.81;72.57;99357.78;4353358;32;33109;-91
2022/11/04 08:16:25;;;;;;;4.95;4.45;;;;;;;12.05;70.84;99348.47;4360926;32;33967;-82
2022/11/04 08:19:09;;;;;;;7.97;4.30;;;;;;;11.73;72.47;99338.84;4347885;33;33272;-82
2022/11/04 08:21:38;;;;;;;5.57;5.05;;;;;;;11.89;71.39;99342.38;4362519;32;34061;-82
2022/11/04 08:24:09;;;;;;;10.27;3.65;;;;;;;11.97;71.24;99334.84;4356744;32;33122;-82
2022/11/04 08:26:37;;;;;;;4.75;3.62;;;;;;;12.23;69.86;99343.09;4350033;32;33211;-82
2022/11/04 08:29:07;;;;;;;8.85;4.50;;;;;;;12.10;70.36;99344.72;4338196;32;33343;-82
2022/11/04 08:31:39;;;;;;;10.80;4.10;;;;;;;12.15;70.30;99326.78;4358004;32;32699;-90
2022/11/04 08:34:35;;;;;;;5.60;3.33;;;;;;;12.10;70.27;99320.91;4363279;32;35488;-87
2022/11/04 08:37:04;;;;;;;5.22;4.80;;;;;;;11.66;71.76;99340.13;4352689;32;34079;-87
2022/11/04 08:39:33;;;;;;;5.65;4.35;;;;;;;11.59;72.17;99344.91;4358209;32;34418;-87
2022/11/04 08:42:00;;;;;;;4.18;3.78;;;;;;;11.90;71.04;99333.47;4357359;32;33941;-86
2022/11/04 08:44:28;;;;;;;8.13;5.25;;;;;;;11.73;71.61;99326.47;4351940;32;33673;-86
2022/11/04 08:49:37;;;;;;;3.87;3.60;;;;;;;11.83;71.06;99334.78;4345496;32;32796;-87
2022/11/04 08:52:05;;;;;;;9.07;4.85;;;;;;;12.27;69.94;99320.78;4340084;32;32835;-87
2022/11/04 08:54:35;;;;;;;6.07;5.37;;;;;;;12.48;68.96;99305.44;4353842;32;32780;-86
2022/11/04 08:57:09;;;;;;;3.55;3.35;;;;;;;12.31;69.07;99306.44;4347613;32;33184;-87
2022/11/04 08:59:37;;;;;;;4.32;3.40;;;;;;;12.32;69.31;99313.44;4354536;32;33828;-87
2022/11/04 09:02:06;;;;;;;10.40;4.62;;;;;;;11.62;72.39;99312.12;4335420;32;34418;-87
2022/11/04 09:04:33;;;;;;;2.75;2.55;;;;;;;12.19;70.81;99307.16;4352441;32;33733;-87
2022/11/04 09:07:02;;;;;;;11.32;6.65;;;;;;;12.16;70.34;99292.31;4352578;32;33266;-86
2022/11/04 09:09:38;;;;;;;7.60;5.25;;;;;;;12.47;69.63;99288.69;4356005;32;34313;-87
2022/11/04 09:12:10;;;;;;;4.60;4.15;;;;;;;12.32;69.83;99292.25;4354824;32;33931;-87
2022/11/04 09:14:40;;;;;;;11.75;4.47;;;;;;;12.01;70.49;99299.34;4365844;32;33197;-86
2022/11/04 09:17:08;;;;;;;4.90;3.00;;;;;;;11.90;71.19;99301.75;4365854;32;34046;-86
2022/11/04 09:19:37;;;;;;;5.82;5.22;;;;;;;12.00;70.68;99308.22;4354134;32;33653;-87
2022/11/04 09:22:06;;;;;;;8.63;6.57;;;;;;;11.84;71.29;99296.81;4353726;32;34755;-87
2022/11/04 09:24:34;;;;;;;6.32;5.75;;;;;;;12.31;69.65;99295.84;4351398;32;33749;-87
2022/11/04 09:27:04;;;;;;;6.43;5.43;;;;;;;12.32;69.59;99279.03;4352427;32;32897;-87
2022/11/04 09:29:36;;;;;;;5.87;5.10;;;;;;;12.23;70.33;99298.09;4353312;32;32487;-87
2022/11/04 09:32:05;;;;;;;4.40;3.90;;;;;;;12.22;70.67;99296.41;4358625;32;33403;-87
2022/11/04 09:34:35;;;;;;;5.15;4.22;;;;;;;12.24;70.34;99289.19;4347429;32;33428;-87
2022/11/04 09:37:03;;;;;;;6.90;3.97;;;;;;;11.95;71.04;99283.81;4348032;32;32706;-87
2022/11/04 09:39:30;;;;;;;5.05;4.70;;;;;;;11.91;71.41;99276.13;4348311;32;32713;-86
2022/11/04 09:42:02;;;;;;;3.55;3.22;;;;;;;12.27;69.73;99262.56;4348578;32;34423;-87
2022/11/04 09:44:54;;;;;;;3.33;3.10;;;;;;;12.22;69.70;99267.28;4361743;32;33949;-87
2022/11/04 09:47:44;;;;;;;2.92;2.58;;;;;;;11.99;70.97;99273.91;4350668;32;33144;-86
2022/11/04 09:50:43;;;;;;;4.37;4.00;;;;;;;11.98;71.21;99257.19;4347731;32;34546;-86
2022/11/04 09:53:16;;;;;;;3.15;2.87;;;;;;;12.12;70.76;99242.31;4360713;32;34689;-86
2022/11/04 09:55:50;;;;;;;4.45;3.08;;;;;;;11.76;72.21;99241.66;4367540;32;33802;-85
2022/11/04 09:58:19;;;;;;;3.87;3.42;;;;;;;11.64;72.82;99237.09;4354263;32;32135;-86
2022/11/04 10:00:57;;;;;;;4.40;3.55;;;;;;;11.69;72.71;99234.19;4347290;32;34060;-85
2022/11/04 10:03:28;;;;;;;3.75;3.22;;;;;;;11.88;72.71;99224.28;4348597;32;34396;-85
2022/11/04 10:06:02;;;;;;;6.37;5.57;;;;;;;12.02;72.20;99216.37;4365654;32;32992;-85
2022/11/04 10:08:50;;;;;;;5.72;5.22;;;;;;;11.83;72.63;99209.63;4367016;32;33123;-85
2022/11/04 10:11:28;;;;;;;8.13;3.97;;;;;;;11.99;72.51;99211.25;4354942;32;33136;-86
2022/11/04 10:14:19;;;;;;;4.22;3.83;;;;;;;11.88;73.02;99211.03;4360305;32;34646;-86
2022/11/04 10:17:23;;;;;;;4.22;3.85;;;;;;;11.89;73.38;99215.37;4363760;32;34030;-86
2022/11/04 10:20:14;;;;;;;4.40;3.65;;;;;;;12.07;72.79;99212.62;4303688;32;34390;-86
2022/11/04 10:22:57;;;;;;;5.03;3.92;;;;;;;12.10;72.71;99209.75;4354331;32;34610;-85
2022/11/04 10:25:42;;;;;;;5.55;4.80;;;;;;;12.24;71.42;99205.34;4346190;32;35666;-85
2022/11/04 10:28:18;;;;;;;4.62;4.22;;;;;;;12.31;71.38;99205.84;4365901;32;33343;-86
2022/11/04 10:30:50;;;;;;;10.07;4.53;;;;;;;11.91;73.19;99210.00;4353936;32;34401;-86
2022/11/04 10:33:26;;;;;;;5.93;3.45;;;;;;;12.14;72.03;99208.66;4358447;32;33668;-86
2022/11/04 10:35:59;;;;;;;7.40;5.60;;;;;;;12.29;71.87;99210.38;4362111;32;32757;-86
2022/11/04 10:38:49;;;;;;;5.47;4.45;;;;;;;12.00;73.04;99202.38;4355134;32;32658;-86
2022/11/04 10:41:25;;;;;;;2.65;2.55;;;;;;;12.39;71.52;99195.66;4366006;32;34271;-85
2022/11/04 10:44:00;;;;;;;4.05;3.75;;;;;;;12.41;72.05;99177.03;4366624;32;32839;-86
2022/11/04 10:46:41;;;;;;;2.22;2.08;;;;;;;12.43;71.61;99181.25;4368944;32;34436;-86
2022/11/04 10:49:38;;;;;;;5.97;5.57;;;;;;;12.07;72.92;99172.91;4368379;32;34029;-86
2022/11/04 10:52:07;;;;;;;5.10;3.25;;;;;;;12.38;72.32;99170.09;4380819;32;31954;-86
2022/11/04 10:54:40;;;;;;;11.15;5.00;;;;;;;11.99;73.69;99179.50;4368306;32;33178;-86
2022/11/04 10:57:11;;;;;;;21.20;5.18;;;;;;;12.36;71.84;99174.66;4357190;32;34175;-86
2022/11/04 10:59:44;;;;;;;5.72;3.08;;;;;;;12.02;73.24;99167.91;4369432;32;34968;-86
2022/11/04 11:02:15;;;;;;;4.43;3.35;;;;;;;12.37;72.11;99168.41;4369601;32;32586;-86
2022/11/04 11:04:47;;;;;;;7.30;4.75;;;;;;;12.75;70.74;99163.37;4380045;32;34209;-86
2022/11/04 11:07:22;;;;;;;3.85;3.12;;;;;;;12.77;70.97;99163.28;4368434;32;33389;-86
2022/11/04 11:09:52;;;;;;;5.53;4.18;;;;;;;12.51;72.61;99171.06;4361911;32;34639;-86
2022/11/04 11:12:39;;;;;;;4.05;3.60;;;;;;;12.86;71.19;99165.34;4365218;32;33547;-86
2022/11/04 11:15:24;;;;;;;3.72;3.40;;;;;;;12.87;71.35;99164.44;4376677;32;33149;-86
2022/11/04 11:18:12;;;;;;;3.78;3.30;;;;;;;13.02;70.29;99165.25;4385083;32;33179;-86
2022/11/04 11:20:42;;;;;;;6.50;4.47;;;;;;;12.86;70.90;99170.66;4387869;32;33893;-86
2022/11/04 11:23:32;;;;;;;;;;;;;;;12.72;70.52;99175.97;4360394;32;33057;-85
2022/11/04 11:26:00;;;;;;;4.25;3.17;;;;;;;12.59;70.77;99172.41;4371427;32;33859;-86
2022/11/04 11:28:29;;;;;;;12.70;6.93;;;;;;;12.63;70.84;99158.00;4375466;32;33250;-86
2022/11/04 11:31:03;;;;;;;6.12;5.65;;;;;;;12.32;71.81;99161.69;4366219;32;32760;-86
2022/11/04 11:33:33;;;;;;;5.70;3.75;;;;;;;12.47;71.99;99153.66;4355532;32;31125;-86
2022/11/04 11:36:11;;;;;;;4.65;2.72;;;;;;;12.30;72.43;99153.84;4370129;32;33335;-87
2022/11/04 11:39:11;;;;;;;5.05;4.57;;;;;;;12.24;73.03;99154.22;4364050;32;34039;-86
2022/11/04 11:41:54;;;;;;;4.32;4.03;;;;;;;12.53;71.64;99155.06;4352197;32;34568;-86
2022/11/04 11:44:36;;;;;;;4.05;3.65;;;;;;;12.48;72.51;99143.91;4359407;32;32349;-86
2022/11/04 11:47:06;;;;;;;6.37;4.40;;;;;;;12.47;72.08;99140.41;4358323;32;34767;-87
2022/11/04 11:49:38;;;;;;;6.28;5.10;;;;;;;12.48;71.61;99123.56;4359808;32;33723;-87
2022/11/04 11:52:37;;;;;;;6.07;4.25;;;;;;;12.82;71.01;99132.06;4359969;32;35341;-87
2022/11/04 11:55:21;;;;;;;5.32;4.82;;;;;;;12.91;70.50;99115.56;4352953;32;33210;-87
2022/11/04 11:58:09;;;;;;;10.73;4.87;;;;;;;12.80;71.28;99116.25;4362934;32;33249;-86
2022/11/04 12:01:32;;;;;;;3.60;3.33;;;;;;;12.53;72.36;99110.94;4373813;32;34999;-86
2022/11/04 12:04:03;;;;;;;7.65;4.03;;;;;;;13.05;70.45;99101.44;4373702;32;34178;-86
2022/11/04 12:07:07;;;;;;;7.15;6.55;;;;;;;13.20;69.70;99104.91;4361504;32;35390;-86
2022/11/04 12:10:35;;;;;;;8.32;4.68;;;;;;;13.13;69.86;99087.69;4359967;32;32940;-88
2022/11/04 12:13:29;;;;;;;5.15;4.15;;;;;;;13.08;70.79;99082.69;4371991;32;34317;-88
2022/11/04 12:16:35;;;;;;;10.50;5.50;;;;;;;13.22;70.73;99074.72;4360922;32;33939;-88
2022/11/04 12:19:14;;;;;;;13.55;4.60;;;;;;;13.52;69.27;99069.16;4360330;32;31193;-88
2022/11/04 12:21:52;;;;;;;9.00;5.82;;;;;;;13.64;68.99;99061.34;4351409;32;33276;-87
2022/11/04 12:24:52;;;;;;;10.93;6.35;;;;;;;13.50;69.34;99059.62;4358057;32;33319;-86
2022/11/04 12:27:36;;;;;;;5.97;4.80;;;;;;;13.43;69.41;99058.31;4358689;32;32600;-87
2022/11/04 12:30:09;;;;;;;5.07;4.68;;;;;;;13.29;69.82;99049.50;4370059;32;33099;-87
2022/11/04 12:33:03;;;;;;;8.10;4.82;;;;;;;13.18;69.83;99033.41;4348365;32;33245;-87
2022/11/04 12:35:43;;;;;;;13.15;4.90;;;;;;;13.45;69.38;99024.59;4364243;32;33820;-87
2022/11/04 12:38:32;;;;;;;4.50;4.10;;;;;;;13.05;70.54;99032.53;4341504;32;34239;-87
2022/11/04 12:41:22;;;;;;;5.35;4.90;;;;;;;13.02;70.87;99027.44;4357431;32;31857;-86
2022/11/04 12:44:17;;;;;;;7.43;4.07;;;;;;;13.00;70.98;99024.03;4369177;32;34396;-86
2022/11/04 12:47:06;;;;;;;11.50;5.25;;;;;;;12.95;71.29;99026.13;4358682;32;34341;-87
2022/11/04 12:50:05;;;;;;;7.53;5.37;;;;;;;12.85;71.78;99025.03;4369554;32;33945;-86
2022/11/04 12:52:57;;;;;;;4.47;4.07;;;;;;;13.22;70.31;99024.34;4357830;32;32484;-88
2022/11/04 12:55:37;;;;;;;7.65;6.80;;;;;;;13.30;70.32;99018.53;4360138;32;32753;-88